sensor_id;sensor_type;location;lat;lon;timestamp;P1;durP1;ratioP1;P2;durP2;ratioP2
20421;SDS011;10370;53.102;18.034;2023-08-06T00:00:41;7.40;;;6.25;;
20421;SDS011;10370;53.102;18.034;2023-08-06T00:06:05;12.05;;;6.15;;
20421;SDS011;10370;53.102;18.034;2023-08-06T00:11:28;8.70;;;6.45;;
20421;SDS011;10370;53.102;18.034;2023-08-06T00:16:51;9.30;;;6.00;;
20421;SDS011;10370;53.102;18.034;2023-08-06T00:22:13;8.43;;;6.28;;
20421;SDS011;10370;53.102;18.034;2023-08-06T00:27:36;8.10;;;6.30;;
20421;SDS011;10370;53.102;18.034;2023-08-06T00:38:22;7.03;;;6.15;;
20421;SDS011;10370;53.102;18.034;2023-08-06T00:43:45;8.13;;;5.57;;
20421;SDS011;10370;53.102;18.034;2023-08-06T00:49:08;8.65;;;5.68;;
20421;SDS011;10370;53.102;18.034;2023-08-06T00:54:30;8.82;;;6.03;;
20421;SDS011;10370;53.102;18.034;2023-08-06T00:59:54;9.90;;;5.60;;
20421;SDS011;10370;53.102;18.034;2023-08-06T01:05:18;8.15;;;5.75;;
20421;SDS011;10370;53.102;18.034;2023-08-06T01:11:04;7.80;;;5.85;;
20421;SDS011;10370;53.102;18.034;2023-08-06T01:16:49;12.55;;;6.90;;
20421;SDS011;10370;53.102;18.034;2023-08-06T01:22:13;9.40;;;7.28;;
20421;SDS011;10370;53.102;18.034;2023-08-06T01:27:49;10.10;;;7.60;;
20421;SDS011;10370;53.102;18.034;2023-08-06T01:33:14;10.00;;;7.50;;
20421;SDS011;10370;53.102;18.034;2023-08-06T01:44:03;8.70;;;6.90;;
20421;SDS011;10370;53.102;18.034;2023-08-06T01:54:48;13.75;;;7.07;;
20421;SDS011;10370;53.102;18.034;2023-08-06T02:00:11;10.30;;;6.30;;
20421;SDS011;10370;53.102;18.034;2023-08-06T02:05:34;10.43;;;6.80;;
20421;SDS011;10370;53.102;18.034;2023-08-06T02:10:57;7.78;;;5.78;;
20421;SDS011;10370;53.102;18.034;2023-08-06T02:16:20;11.43;;;7.90;;
20421;SDS011;10370;53.102;18.034;2023-08-06T02:21:42;7.95;;;5.70;;
20421;SDS011;10370;53.102;18.034;2023-08-06T02:27:05;7.88;;;5.63;;
20421;SDS011;10370;53.102;18.034;2023-08-06T02:32:28;8.50;;;6.03;;
20421;SDS011;10370;53.102;18.034;2023-08-06T02:37:53;10.68;;;7.70;;
20421;SDS011;10370;53.102;18.034;2023-08-06T02:43:16;8.15;;;5.93;;
20421;SDS011;10370;53.102;18.034;2023-08-06T02:48:38;10.00;;;6.68;;
20421;SDS011;10370;53.102;18.034;2023-08-06T02:54:01;9.02;;;6.97;;
20421;SDS011;10370;53.102;18.034;2023-08-06T02:59:23;8.30;;;6.47;;
20421;SDS011;10370;53.102;18.034;2023-08-06T03:04:46;9.20;;;7.28;;
20421;SDS011;10370;53.102;18.034;2023-08-06T03:10:09;7.03;;;4.63;;
20421;SDS011;10370;53.102;18.034;2023-08-06T03:15:31;7.50;;;5.18;;
20421;SDS011;10370;53.102;18.034;2023-08-06T03:20:54;5.80;;;4.22;;
20421;SDS011;10370;53.102;18.034;2023-08-06T03:26:17;8.07;;;4.82;;
20421;SDS011;10370;53.102;18.034;2023-08-06T03:31:39;5.72;;;4.60;;
20421;SDS011;10370;53.102;18.034;2023-08-06T03:37:03;11.32;;;7.82;;
20421;SDS011;10370;53.102;18.034;2023-08-06T03:42:25;10.20;;;5.22;;
20421;SDS011;10370;53.102;18.034;2023-08-06T03:47:48;5.70;;;4.78;;
20421;SDS011;10370;53.102;18.034;2023-08-06T03:53:11;7.78;;;5.50;;
20421;SDS011;10370;53.102;18.034;2023-08-06T03:58:33;10.63;;;6.35;;
20421;SDS011;10370;53.102;18.034;2023-08-06T04:03:56;10.98;;;7.65;;
20421;SDS011;10370;53.102;18.034;2023-08-06T04:09:19;8.63;;;7.50;;
20421;SDS011;10370;53.102;18.034;2023-08-06T04:14:41;9.15;;;7.45;;
20421;SDS011;10370;53.102;18.034;2023-08-06T04:20:04;9.18;;;6.65;;
20421;SDS011;10370;53.102;18.034;2023-08-06T04:25:34;6.93;;;5.93;;
20421;SDS011;10370;53.102;18.034;2023-08-06T04:30:58;9.13;;;5.05;;
20421;SDS011;10370;53.102;18.034;2023-08-06T04:36:21;5.80;;;5.20;;
20421;SDS011;10370;53.102;18.034;2023-08-06T04:41:46;5.50;;;4.95;;
20421;SDS011;10370;53.102;18.034;2023-08-06T04:47:09;6.15;;;4.70;;
20421;SDS011;10370;53.102;18.034;2023-08-06T04:52:32;8.40;;;6.38;;
20421;SDS011;10370;53.102;18.034;2023-08-06T04:57:54;6.00;;;5.30;;
20421;SDS011;10370;53.102;18.034;2023-08-06T05:03:17;6.88;;;4.93;;
20421;SDS011;10370;53.102;18.034;2023-08-06T05:08:43;5.95;;;5.35;;
20421;SDS011;10370;53.102;18.034;2023-08-06T05:14:07;7.07;;;6.18;;
20421;SDS011;10370;53.102;18.034;2023-08-06T05:19:30;9.93;;;4.72;;
20421;SDS011;10370;53.102;18.034;2023-08-06T05:24:53;8.52;;;6.43;;
20421;SDS011;10370;53.102;18.034;2023-08-06T05:30:17;9.23;;;6.45;;
20421;SDS011;10370;53.102;18.034;2023-08-06T05:35:40;8.57;;;6.28;;
20421;SDS011;10370;53.102;18.034;2023-08-06T05:41:05;10.82;;;7.30;;
20421;SDS011;10370;53.102;18.034;2023-08-06T05:46:28;9.77;;;6.88;;
20421;SDS011;10370;53.102;18.034;2023-08-06T05:51:51;8.30;;;6.07;;
20421;SDS011;10370;53.102;18.034;2023-08-06T05:57:16;13.88;;;7.00;;
20421;SDS011;10370;53.102;18.034;2023-08-06T06:02:41;12.07;;;7.68;;
20421;SDS011;10370;53.102;18.034;2023-08-06T06:08:05;14.00;;;9.05;;
20421;SDS011;10370;53.102;18.034;2023-08-06T06:13:29;15.70;;;10.50;;
20421;SDS011;10370;53.102;18.034;2023-08-06T06:18:52;16.67;;;10.35;;
20421;SDS011;10370;53.102;18.034;2023-08-06T06:24:16;16.52;;;11.10;;
20421;SDS011;10370;53.102;18.034;2023-08-06T06:29:39;18.38;;;12.07;;
20421;SDS011;10370;53.102;18.034;2023-08-06T06:35:02;22.58;;;12.63;;
20421;SDS011;10370;53.102;18.034;2023-08-06T06:40:25;16.52;;;12.23;;
20421;SDS011;10370;53.102;18.034;2023-08-06T06:45:52;17.40;;;11.95;;
20421;SDS011;10370;53.102;18.034;2023-08-06T06:51:21;20.63;;;11.13;;
20421;SDS011;10370;53.102;18.034;2023-08-06T06:56:44;14.85;;;11.07;;
20421;SDS011;10370;53.102;18.034;2023-08-06T07:02:06;14.55;;;10.77;;
20421;SDS011;10370;53.102;18.034;2023-08-06T07:07:29;16.02;;;11.35;;
20421;SDS011;10370;53.102;18.034;2023-08-06T07:12:52;15.60;;;10.65;;
20421;SDS011;10370;53.102;18.034;2023-08-06T07:18:15;17.65;;;10.82;;
20421;SDS011;10370;53.102;18.034;2023-08-06T07:23:38;15.43;;;9.80;;
20421;SDS011;10370;53.102;18.034;2023-08-06T07:29:00;17.85;;;10.88;;
20421;SDS011;10370;53.102;18.034;2023-08-06T07:34:23;12.10;;;9.70;;
20421;SDS011;10370;53.102;18.034;2023-08-06T07:39:46;13.27;;;10.20;;
20421;SDS011;10370;53.102;18.034;2023-08-06T07:45:08;14.77;;;11.38;;
20421;SDS011;10370;53.102;18.034;2023-08-06T07:50:32;14.30;;;10.32;;
20421;SDS011;10370;53.102;18.034;2023-08-06T07:55:55;16.48;;;10.57;;
20421;SDS011;10370;53.102;18.034;2023-08-06T08:01:17;14.68;;;10.68;;
20421;SDS011;10370;53.102;18.034;2023-08-06T08:06:41;17.75;;;12.05;;
20421;SDS011;10370;53.102;18.034;2023-08-06T08:12:22;16.95;;;12.75;;
20421;SDS011;10370;53.102;18.034;2023-08-06T08:17:50;16.80;;;12.93;;
20421;SDS011;10370;53.102;18.034;2023-08-06T08:23:19;15.90;;;12.73;;
20421;SDS011;10370;53.102;18.034;2023-08-06T08:28:42;17.48;;;12.30;;
20421;SDS011;10370;53.102;18.034;2023-08-06T08:34:05;18.08;;;12.07;;
20421;SDS011;10370;53.102;18.034;2023-08-06T08:39:28;16.38;;;11.45;;
20421;SDS011;10370;53.102;18.034;2023-08-06T08:44:50;13.50;;;10.60;;
20421;SDS011;10370;53.102;18.034;2023-08-06T08:50:15;17.23;;;11.68;;
20421;SDS011;10370;53.102;18.034;2023-08-06T08:55:40;15.88;;;11.75;;
20421;SDS011;10370;53.102;18.034;2023-08-06T09:01:04;17.60;;;11.65;;
20421;SDS011;10370;53.102;18.034;2023-08-06T09:06:29;17.83;;;11.25;;
20421;SDS011;10370;53.102;18.034;2023-08-06T09:11:54;14.68;;;11.85;;
20421;SDS011;10370;53.102;18.034;2023-08-06T09:17:22;14.27;;;11.52;;
20421;SDS011;10370;53.102;18.034;2023-08-06T09:22:44;14.63;;;10.45;;
20421;SDS011;10370;53.102;18.034;2023-08-06T09:28:09;18.13;;;11.20;;
20421;SDS011;10370;53.102;18.034;2023-08-06T09:33:32;14.15;;;10.57;;
20421;SDS011;10370;53.102;18.034;2023-08-06T09:38:57;16.02;;;11.02;;
20421;SDS011;10370;53.102;18.034;2023-08-06T09:44:20;15.93;;;10.73;;
20421;SDS011;10370;53.102;18.034;2023-08-06T09:49:45;18.65;;;11.68;;
20421;SDS011;10370;53.102;18.034;2023-08-06T09:55:08;16.55;;;11.85;;
20421;SDS011;10370;53.102;18.034;2023-08-06T10:00:36;17.20;;;12.40;;
20421;SDS011;10370;53.102;18.034;2023-08-06T10:06:00;15.43;;;11.48;;
20421;SDS011;10370;53.102;18.034;2023-08-06T10:11:28;17.38;;;11.13;;
20421;SDS011;10370;53.102;18.034;2023-08-06T10:16:52;14.85;;;10.80;;
20421;SDS011;10370;53.102;18.034;2023-08-06T10:22:17;14.05;;;10.25;;
20421;SDS011;10370;53.102;18.034;2023-08-06T10:27:40;13.82;;;10.10;;
20421;SDS011;10370;53.102;18.034;2023-08-06T10:33:14;13.63;;;10.07;;
20421;SDS011;10370;53.102;18.034;2023-08-06T10:38:47;12.85;;;9.55;;
20421;SDS011;10370;53.102;18.034;2023-08-06T10:44:11;11.18;;;8.60;;
20421;SDS011;10370;53.102;18.034;2023-08-06T10:49:34;12.40;;;9.60;;
20421;SDS011;10370;53.102;18.034;2023-08-06T10:54:57;10.88;;;8.63;;
20421;SDS011;10370;53.102;18.034;2023-08-06T11:00:20;11.82;;;8.88;;
20421;SDS011;10370;53.102;18.034;2023-08-06T11:05:50;8.65;;;7.53;;
20421;SDS011;10370;53.102;18.034;2023-08-06T11:11:14;10.02;;;8.13;;
20421;SDS011;10370;53.102;18.034;2023-08-06T11:16:37;11.13;;;8.40;;
20421;SDS011;10370;53.102;18.034;2023-08-06T11:22:00;12.13;;;8.90;;
20421;SDS011;10370;53.102;18.034;2023-08-06T11:27:25;11.25;;;8.77;;
20421;SDS011;10370;53.102;18.034;2023-08-06T11:32:50;12.48;;;8.73;;
20421;SDS011;10370;53.102;18.034;2023-08-06T11:38:13;12.25;;;8.60;;
20421;SDS011;10370;53.102;18.034;2023-08-06T11:43:37;14.43;;;9.35;;
20421;SDS011;10370;53.102;18.034;2023-08-06T11:49:00;10.90;;;8.73;;
20421;SDS011;10370;53.102;18.034;2023-08-06T11:54:32;11.82;;;8.50;;
20421;SDS011;10370;53.102;18.034;2023-08-06T12:00:02;12.57;;;9.13;;
20421;SDS011;10370;53.102;18.034;2023-08-06T12:05:35;11.43;;;8.98;;
20421;SDS011;10370;53.102;18.034;2023-08-06T12:11:00;15.77;;;10.68;;
20421;SDS011;10370;53.102;18.034;2023-08-06T12:16:23;17.65;;;12.07;;
20421;SDS011;10370;53.102;18.034;2023-08-06T12:21:46;19.88;;;12.63;;
20421;SDS011;10370;53.102;18.034;2023-08-06T12:27:09;24.35;;;14.90;;
20421;SDS011;10370;53.102;18.034;2023-08-06T12:32:32;26.48;;;16.45;;
20421;SDS011;10370;53.102;18.034;2023-08-06T12:37:55;25.40;;;16.63;;
20421;SDS011;10370;53.102;18.034;2023-08-06T12:43:19;27.65;;;19.00;;
20421;SDS011;10370;53.102;18.034;2023-08-06T12:48:42;29.67;;;19.63;;
20421;SDS011;10370;53.102;18.034;2023-08-06T12:54:04;31.08;;;19.52;;
20421;SDS011;10370;53.102;18.034;2023-08-06T12:59:31;26.15;;;18.65;;
20421;SDS011;10370;53.102;18.034;2023-08-06T13:04:55;30.67;;;20.23;;
20421;SDS011;10370;53.102;18.034;2023-08-06T13:10:17;31.15;;;20.85;;
20421;SDS011;10370;53.102;18.034;2023-08-06T13:15:41;33.05;;;21.85;;
20421;SDS011;10370;53.102;18.034;2023-08-06T13:21:04;32.97;;;21.98;;
20421;SDS011;10370;53.102;18.034;2023-08-06T13:26:27;32.88;;;22.33;;
20421;SDS011;10370;53.102;18.034;2023-08-06T13:31:51;33.42;;;22.80;;
20421;SDS011;10370;53.102;18.034;2023-08-06T13:37:14;32.92;;;22.50;;
20421;SDS011;10370;53.102;18.034;2023-08-06T13:42:36;33.85;;;23.05;;
20421;SDS011;10370;53.102;18.034;2023-08-06T13:47:59;32.03;;;23.08;;
20421;SDS011;10370;53.102;18.034;2023-08-06T13:53:22;33.92;;;24.92;;
20421;SDS011;10370;53.102;18.034;2023-08-06T13:58:45;38.15;;;24.42;;
20421;SDS011;10370;53.102;18.034;2023-08-06T14:04:08;33.90;;;24.10;;
20421;SDS011;10370;53.102;18.034;2023-08-06T14:09:34;11.77;;;8.60;;
20421;SDS011;10370;53.102;18.034;2023-08-06T14:14:57;6.95;;;2.80;;
20421;SDS011;10370;53.102;18.034;2023-08-06T14:20:19;1.05;;;0.95;;
20421;SDS011;10370;53.102;18.034;2023-08-06T14:25:42;1.02;;;0.80;;
20421;SDS011;10370;53.102;18.034;2023-08-06T14:31:05;1.25;;;0.65;;
20421;SDS011;10370;53.102;18.034;2023-08-06T14:36:28;0.60;;;0.60;;
20421;SDS011;10370;53.102;18.034;2023-08-06T14:41:51;1.60;;;0.85;;
20421;SDS011;10370;53.102;18.034;2023-08-06T14:47:13;1.45;;;0.82;;
20421;SDS011;10370;53.102;18.034;2023-08-06T14:52:36;1.48;;;0.80;;
20421;SDS011;10370;53.102;18.034;2023-08-06T14:58:00;1.92;;;0.93;;
20421;SDS011;10370;53.102;18.034;2023-08-06T15:03:23;2.97;;;0.80;;
20421;SDS011;10370;53.102;18.034;2023-08-06T15:08:47;0.57;;;0.50;;
20421;SDS011;10370;53.102;18.034;2023-08-06T15:14:10;2.42;;;0.60;;
20421;SDS011;10370;53.102;18.034;2023-08-06T15:19:33;2.60;;;0.50;;
20421;SDS011;10370;53.102;18.034;2023-08-06T15:24:56;0.60;;;0.50;;
20421;SDS011;10370;53.102;18.034;2023-08-06T15:30:19;2.33;;;1.40;;
20421;SDS011;10370;53.102;18.034;2023-08-06T15:35:42;1.00;;;0.90;;
20421;SDS011;10370;53.102;18.034;2023-08-06T15:41:05;0.57;;;0.50;;
20421;SDS011;10370;53.102;18.034;2023-08-06T15:46:27;0.80;;;0.70;;
20421;SDS011;10370;53.102;18.034;2023-08-06T15:51:50;1.77;;;0.95;;
20421;SDS011;10370;53.102;18.034;2023-08-06T15:57:14;3.67;;;1.50;;
20421;SDS011;10370;53.102;18.034;2023-08-06T16:02:38;2.58;;;1.55;;
20421;SDS011;10370;53.102;18.034;2023-08-06T16:08:01;1.40;;;1.30;;
20421;SDS011;10370;53.102;18.034;2023-08-06T16:13:24;2.67;;;1.10;;
20421;SDS011;10370;53.102;18.034;2023-08-06T16:18:46;0.70;;;0.70;;
20421;SDS011;10370;53.102;18.034;2023-08-06T16:24:09;1.23;;;0.70;;
20421;SDS011;10370;53.102;18.034;2023-08-06T16:29:33;1.33;;;0.80;;
20421;SDS011;10370;53.102;18.034;2023-08-06T16:34:56;1.23;;;0.68;;
20421;SDS011;10370;53.102;18.034;2023-08-06T16:40:19;1.50;;;0.70;;
20421;SDS011;10370;53.102;18.034;2023-08-06T16:45:41;1.05;;;0.90;;
20421;SDS011;10370;53.102;18.034;2023-08-06T16:51:04;3.33;;;0.80;;
20421;SDS011;10370;53.102;18.034;2023-08-06T16:56:27;1.15;;;1.00;;
20421;SDS011;10370;53.102;18.034;2023-08-06T17:01:51;2.67;;;1.00;;
20421;SDS011;10370;53.102;18.034;2023-08-06T17:07:14;3.15;;;0.90;;
20421;SDS011;10370;53.102;18.034;2023-08-06T17:12:37;1.83;;;1.00;;
20421;SDS011;10370;53.102;18.034;2023-08-06T17:18:00;1.67;;;0.90;;
20421;SDS011;10370;53.102;18.034;2023-08-06T17:23:27;0.93;;;0.80;;
20421;SDS011;10370;53.102;18.034;2023-08-06T17:28:50;2.75;;;0.85;;
20421;SDS011;10370;53.102;18.034;2023-08-06T17:34:13;0.60;;;0.60;;
20421;SDS011;10370;53.102;18.034;2023-08-06T17:39:35;0.90;;;0.73;;
20421;SDS011;10370;53.102;18.034;2023-08-06T17:44:58;2.17;;;0.70;;
20421;SDS011;10370;53.102;18.034;2023-08-06T17:50:21;2.78;;;1.00;;
20421;SDS011;10370;53.102;18.034;2023-08-06T17:55:44;1.10;;;0.90;;
20421;SDS011;10370;53.102;18.034;2023-08-06T18:01:07;1.17;;;0.68;;
20421;SDS011;10370;53.102;18.034;2023-08-06T18:06:29;1.98;;;0.60;;
20421;SDS011;10370;53.102;18.034;2023-08-06T18:11:54;1.10;;;0.60;;
20421;SDS011;10370;53.102;18.034;2023-08-06T18:17:17;0.73;;;0.50;;
20421;SDS011;10370;53.102;18.034;2023-08-06T18:22:40;2.67;;;0.60;;
20421;SDS011;10370;53.102;18.034;2023-08-06T18:28:03;2.00;;;0.77;;
20421;SDS011;10370;53.102;18.034;2023-08-06T18:33:26;1.85;;;0.80;;
20421;SDS011;10370;53.102;18.034;2023-08-06T18:38:49;2.42;;;0.73;;
20421;SDS011;10370;53.102;18.034;2023-08-06T18:44:12;3.33;;;0.93;;
20421;SDS011;10370;53.102;18.034;2023-08-06T18:49:34;1.65;;;0.93;;
20421;SDS011;10370;53.102;18.034;2023-08-06T18:54:57;2.17;;;1.30;;
20421;SDS011;10370;53.102;18.034;2023-08-06T19:00:28;1.58;;;1.02;;
20421;SDS011;10370;53.102;18.034;2023-08-06T19:05:51;4.30;;;1.30;;
20421;SDS011;10370;53.102;18.034;2023-08-06T19:11:14;2.85;;;0.80;;
20421;SDS011;10370;53.102;18.034;2023-08-06T19:16:38;1.52;;;1.00;;
20421;SDS011;10370;53.102;18.034;2023-08-06T19:22:07;3.13;;;1.90;;
20421;SDS011;10370;53.102;18.034;2023-08-06T19:27:30;4.20;;;2.80;;
20421;SDS011;10370;53.102;18.034;2023-08-06T19:32:52;7.88;;;4.63;;
20421;SDS011;10370;53.102;18.034;2023-08-06T19:38:15;9.27;;;3.92;;
20421;SDS011;10370;53.102;18.034;2023-08-06T19:43:38;3.63;;;1.27;;
20421;SDS011;10370;53.102;18.034;2023-08-06T19:49:01;1.80;;;0.80;;
20421;SDS011;10370;53.102;18.034;2023-08-06T19:54:24;1.70;;;0.95;;
20421;SDS011;10370;53.102;18.034;2023-08-06T19:59:47;2.55;;;0.60;;
20421;SDS011;10370;53.102;18.034;2023-08-06T20:05:10;2.80;;;0.60;;
20421;SDS011;10370;53.102;18.034;2023-08-06T20:10:35;3.70;;;0.80;;
20421;SDS011;10370;53.102;18.034;2023-08-06T20:15:57;1.42;;;0.80;;
20421;SDS011;10370;53.102;18.034;2023-08-06T20:21:21;3.60;;;1.13;;
20421;SDS011;10370;53.102;18.034;2023-08-06T20:26:43;1.48;;;0.75;;
20421;SDS011;10370;53.102;18.034;2023-08-06T20:32:06;3.33;;;0.90;;
20421;SDS011;10370;53.102;18.034;2023-08-06T20:37:29;1.63;;;0.80;;
20421;SDS011;10370;53.102;18.034;2023-08-06T20:42:51;2.42;;;0.90;;
20421;SDS011;10370;53.102;18.034;2023-08-06T20:48:14;1.48;;;0.95;;
20421;SDS011;10370;53.102;18.034;2023-08-06T20:53:36;0.88;;;0.70;;
20421;SDS011;10370;53.102;18.034;2023-08-06T20:58:59;1.05;;;0.98;;
20421;SDS011;10370;53.102;18.034;2023-08-06T21:04:22;0.50;;;0.50;;
20421;SDS011;10370;53.102;18.034;2023-08-06T21:09:45;0.60;;;0.57;;
20421;SDS011;10370;53.102;18.034;2023-08-06T21:15:08;1.38;;;0.60;;
20421;SDS011;10370;53.102;18.034;2023-08-06T21:20:30;1.42;;;0.55;;
20421;SDS011;10370;53.102;18.034;2023-08-06T21:25:57;1.05;;;0.73;;
20421;SDS011;10370;53.102;18.034;2023-08-06T21:31:20;0.90;;;0.55;;
20421;SDS011;10370;53.102;18.034;2023-08-06T21:36:43;3.10;;;0.98;;
20421;SDS011;10370;53.102;18.034;2023-08-06T21:42:05;2.05;;;0.77;;
20421;SDS011;10370;53.102;18.034;2023-08-06T21:47:28;1.52;;;0.90;;
20421;SDS011;10370;53.102;18.034;2023-08-06T21:52:51;3.10;;;1.23;;
20421;SDS011;10370;53.102;18.034;2023-08-06T21:58:13;1.45;;;0.98;;
20421;SDS011;10370;53.102;18.034;2023-08-06T22:03:36;1.17;;;1.00;;
20421;SDS011;10370;53.102;18.034;2023-08-06T22:09:00;1.70;;;1.20;;
20421;SDS011;10370;53.102;18.034;2023-08-06T22:14:23;3.97;;;1.27;;
20421;SDS011;10370;53.102;18.034;2023-08-06T22:19:46;2.97;;;1.73;;
20421;SDS011;10370;53.102;18.034;2023-08-06T22:25:08;3.60;;;1.70;;
20421;SDS011;10370;53.102;18.034;2023-08-06T22:30:31;3.28;;;1.90;;
20421;SDS011;10370;53.102;18.034;2023-08-06T22:35:53;2.38;;;1.80;;
20421;SDS011;10370;53.102;18.034;2023-08-06T22:41:16;2.83;;;1.80;;
20421;SDS011;10370;53.102;18.034;2023-08-06T22:46:40;1.98;;;1.55;;
20421;SDS011;10370;53.102;18.034;2023-08-06T22:52:02;5.53;;;2.17;;
20421;SDS011;10370;53.102;18.034;2023-08-06T22:57:25;3.85;;;1.85;;
20421;SDS011;10370;53.102;18.034;2023-08-06T23:02:48;4.93;;;1.92;;
20421;SDS011;10370;53.102;18.034;2023-08-06T23:08:24;3.45;;;1.75;;
20421;SDS011;10370;53.102;18.034;2023-08-06T23:13:46;2.50;;;1.70;;
20421;SDS011;10370;53.102;18.034;2023-08-06T23:19:10;3.78;;;1.80;;
20421;SDS011;10370;53.102;18.034;2023-08-06T23:24:33;2.80;;;1.77;;
20421;SDS011;10370;53.102;18.034;2023-08-06T23:29:56;2.25;;;1.58;;
20421;SDS011;10370;53.102;18.034;2023-08-06T23:35:18;3.65;;;1.85;;
20421;SDS011;10370;53.102;18.034;2023-08-06T23:40:41;3.75;;;1.92;;
20421;SDS011;10370;53.102;18.034;2023-08-06T23:46:04;3.92;;;1.88;;
20421;SDS011;10370;53.102;18.034;2023-08-06T23:51:26;7.30;;;2.05;;
20421;SDS011;10370;53.102;18.034;2023-08-06T23:56:49;3.60;;;2.30;;
